Terminal Aerodrome Forecast
Issued by NWS Wilmington, OH

Current Version | Previous Version | Text Only | Print | Product List | Glossary Off
Versions: 1 2 3 4 5 6 7 8 9 10 11 12 13 14 15 16 17 18 19 20 21 22 23 24 25

000
FTUS41 KILN 300900 AAB
TAFCMH
TAF AMD
KCMH 300942Z 3010/3106 32014G22KT P6SM OVC035
      TEMPO 3010/3011 3SM -SN BR BKN015
     FM301100 32014G22KT P6SM OVC050
     FM301400 33013G21KT P6SM OVC015
     FM302000 34011KT P6SM OVC021
     FM310200 32004KT P6SM OVC025=

USA.gov is the U.S. government's official web portal to all federal, state and local government web resources and services.